sensor_id;sensor_type;location;lat;lon;timestamp;pressure;altitude;pressure_sealevel;temperature;humidity
60820;BME280;46641;48.904;9.126;2023-04-02T00:00:22;97760.97;;;14.57;53.35
60820;BME280;46641;48.904;9.126;2023-04-02T00:10:36;97783.41;;;14.53;53.22
60820;BME280;46641;48.904;9.126;2023-04-02T00:15:27;97787.06;;;14.52;53.54
60820;BME280;46641;48.904;9.126;2023-04-02T00:20:19;97790.69;;;14.51;53.45
60820;BME280;46641;48.904;9.126;2023-04-02T00:25:14;97790.50;;;14.52;53.27
60820;BME280;46641;48.904;9.126;2023-04-02T00:30:05;97802.03;;;14.51;53.42
60820;BME280;46641;48.904;9.126;2023-04-02T00:34:56;97804.00;;;14.49;53.54
60820;BME280;46641;48.904;9.126;2023-04-02T00:39:47;97805.66;;;14.50;53.40
60820;BME280;46641;48.904;9.126;2023-04-02T00:44:40;97811.75;;;14.51;53.35
60820;BME280;46641;48.904;9.126;2023-04-02T00:49:39;97811.75;;;14.51;53.43
60820;BME280;46641;48.904;9.126;2023-04-02T00:54:33;97814.53;;;14.49;53.61
60820;BME280;46641;48.904;9.126;2023-04-02T00:59:32;97807.84;;;14.46;53.43
60820;BME280;46641;48.904;9.126;2023-04-02T01:24:47;97834.56;;;14.43;53.47
60820;BME280;46641;48.904;9.126;2023-04-02T01:29:43;97839.03;;;14.43;53.47
60820;BME280;46641;48.904;9.126;2023-04-02T01:34:36;97838.19;;;14.42;53.45
60820;BME280;46641;48.904;9.126;2023-04-02T01:39:33;97838.19;;;14.42;53.52
60820;BME280;46641;48.904;9.126;2023-04-02T01:44:43;97840.81;;;14.42;53.33
60820;BME280;46641;48.904;9.126;2023-04-02T01:49:36;97844.47;;;14.41;53.56
60820;BME280;46641;48.904;9.126;2023-04-02T01:54:29;97846.91;;;14.43;53.55
60820;BME280;46641;48.904;9.126;2023-04-02T01:59:21;97852.56;;;14.40;53.37
60820;BME280;46641;48.904;9.126;2023-04-02T02:04:12;97848.28;;;14.39;53.57
60820;BME280;46641;48.904;9.126;2023-04-02T02:09:05;97859.00;;;14.37;53.63
60820;BME280;46641;48.904;9.126;2023-04-02T02:14:04;97854.56;;;14.38;53.62
60820;BME280;46641;48.904;9.126;2023-04-02T02:18:59;97859.81;;;14.38;53.76
60820;BME280;46641;48.904;9.126;2023-04-02T02:23:51;97867.50;;;14.39;53.57
60820;BME280;46641;48.904;9.126;2023-04-02T02:28:42;97871.16;;;14.38;53.64
60820;BME280;46641;48.904;9.126;2023-04-02T02:33:38;97865.09;;;14.38;53.50
60820;BME280;46641;48.904;9.126;2023-04-02T02:38:36;97871.16;;;14.38;53.50
60820;BME280;46641;48.904;9.126;2023-04-02T02:43:28;97884.53;;;14.37;53.53
60820;BME280;46641;48.904;9.126;2023-04-02T02:48:22;97881.25;;;14.35;53.66
60820;BME280;46641;48.904;9.126;2023-04-02T02:53:20;97884.69;;;14.35;53.63
60820;BME280;46641;48.904;9.126;2023-04-02T02:58:15;97889.78;;;14.37;53.52
60820;BME280;46641;48.904;9.126;2023-04-02T03:03:13;97893.41;;;14.36;53.62
60820;BME280;46641;48.904;9.126;2023-04-02T03:08:11;97892.59;;;14.35;53.68
60820;BME280;46641;48.904;9.126;2023-04-02T03:18:31;97901.50;;;14.34;53.49
60820;BME280;46641;48.904;9.126;2023-04-02T03:23:31;97912.03;;;14.34;53.73
60820;BME280;46641;48.904;9.126;2023-04-02T03:28:26;97915.66;;;14.33;53.56
60820;BME280;46641;48.904;9.126;2023-04-02T03:33:30;97921.31;;;14.30;53.55
60820;BME280;46641;48.904;9.126;2023-04-02T03:38:27;97917.47;;;14.33;53.55
60820;BME280;46641;48.904;9.126;2023-04-02T03:43:24;97930.00;;;14.31;53.76
60820;BME280;46641;48.904;9.126;2023-04-02T03:48:30;97935.88;;;14.33;53.66
60820;BME280;46641;48.904;9.126;2023-04-02T03:53:25;97939.72;;;14.30;53.43
60820;BME280;46641;48.904;9.126;2023-04-02T03:58:20;97945.00;;;14.30;53.88
60820;BME280;46641;48.904;9.126;2023-04-02T04:03:36;97958.53;;;14.27;53.65
60820;BME280;46641;48.904;9.126;2023-04-02T04:08:33;97957.53;;;14.28;53.67
60820;BME280;46641;48.904;9.126;2023-04-02T04:13:33;97961.16;;;14.27;53.87
60820;BME280;46641;48.904;9.126;2023-04-02T04:18:31;97966.78;;;14.24;53.86
60820;BME280;46641;48.904;9.126;2023-04-02T04:23:35;97980.94;;;14.23;54.20
60820;BME280;46641;48.904;9.126;2023-04-02T04:28:58;97983.13;;;14.19;54.00
60820;BME280;46641;48.904;9.126;2023-04-02T04:33:56;97989.19;;;14.20;53.92
60820;BME280;46641;48.904;9.126;2023-04-02T04:38:56;97992.47;;;14.22;54.12
60820;BME280;46641;48.904;9.126;2023-04-02T04:53:59;98010.25;;;14.20;54.00
60820;BME280;46641;48.904;9.126;2023-04-02T04:59:02;98015.16;;;14.23;54.08
60820;BME280;46641;48.904;9.126;2023-04-02T05:14:23;98038.84;;;14.23;54.05
60820;BME280;46641;48.904;9.126;2023-04-02T05:19:45;98043.47;;;14.21;53.81
60820;BME280;46641;48.904;9.126;2023-04-02T05:24:57;98048.75;;;14.21;54.07
60820;BME280;46641;48.904;9.126;2023-04-02T05:29:59;98049.56;;;14.21;54.33
60820;BME280;46641;48.904;9.126;2023-04-02T05:34:53;98052.19;;;14.21;53.94
60820;BME280;46641;48.904;9.126;2023-04-02T05:39:50;98057.47;;;14.21;54.16
60820;BME280;46641;48.904;9.126;2023-04-02T05:44:56;98060.44;;;14.18;54.18
60820;BME280;46641;48.904;9.126;2023-04-02T05:50:08;98075.06;;;14.21;54.03
60820;BME280;46641;48.904;9.126;2023-04-02T06:00:05;98079.03;;;14.17;54.17
60820;BME280;46641;48.904;9.126;2023-04-02T06:05:13;98099.13;;;14.18;54.22
60820;BME280;46641;48.904;9.126;2023-04-02T06:10:09;98091.38;;;14.16;54.02
60820;BME280;46641;48.904;9.126;2023-04-02T06:15:01;98095.84;;;14.16;54.10
60820;BME280;46641;48.904;9.126;2023-04-02T06:19:53;98104.53;;;14.16;54.14
60820;BME280;46641;48.904;9.126;2023-04-02T06:24:50;98109.63;;;14.18;54.36
60820;BME280;46641;48.904;9.126;2023-04-02T06:29:43;98108.84;;;14.17;54.30
60820;BME280;46641;48.904;9.126;2023-04-02T06:34:37;98110.63;;;14.17;54.08
60820;BME280;46641;48.904;9.126;2023-04-02T06:39:28;98131.69;;;14.17;54.18
60820;BME280;46641;48.904;9.126;2023-04-02T06:44:20;98129.03;;;14.17;54.48
60820;BME280;46641;48.904;9.126;2023-04-02T06:49:18;98149.13;;;14.18;54.30
60820;BME280;46641;48.904;9.126;2023-04-02T06:54:14;98160.47;;;14.18;54.42
60820;BME280;46641;48.904;9.126;2023-04-02T06:59:05;98163.25;;;14.17;54.37
60820;BME280;46641;48.904;9.126;2023-04-02T07:03:56;98170.19;;;14.18;54.23
60820;BME280;46641;48.904;9.126;2023-04-02T07:08:47;98171.16;;;14.17;54.43
60820;BME280;46641;48.904;9.126;2023-04-02T07:13:38;98190.41;;;14.17;54.41
60820;BME280;46641;48.904;9.126;2023-04-02T07:18:30;98197.31;;;14.18;54.37
60820;BME280;46641;48.904;9.126;2023-04-02T07:23:21;98199.75;;;14.20;54.33
60820;BME280;46641;48.904;9.126;2023-04-02T07:28:12;98210.28;;;14.20;54.32
60820;BME280;46641;48.904;9.126;2023-04-02T07:33:03;98220.00;;;14.19;54.33
60820;BME280;46641;48.904;9.126;2023-04-02T07:37:54;98221.66;;;14.20;54.33
60820;BME280;46641;48.904;9.126;2023-04-02T07:42:44;98230.16;;;14.22;54.13
60820;BME280;46641;48.904;9.126;2023-04-02T07:47:34;98228.00;;;14.26;54.13
60820;BME280;46641;48.904;9.126;2023-04-02T07:52:24;98241.00;;;14.27;54.16
60820;BME280;46641;48.904;9.126;2023-04-02T07:57:15;98254.97;;;14.28;54.11
60820;BME280;46641;48.904;9.126;2023-04-02T08:02:05;98251.34;;;14.29;54.14
60820;BME280;46641;48.904;9.126;2023-04-02T08:06:55;98261.50;;;14.32;54.16
60820;BME280;46641;48.904;9.126;2023-04-02T08:11:46;98268.25;;;14.35;54.03
60820;BME280;46641;48.904;9.126;2023-04-02T08:16:48;98268.91;;;14.37;54.15
60820;BME280;46641;48.904;9.126;2023-04-02T08:21:38;98285.66;;;14.36;54.12
60820;BME280;46641;48.904;9.126;2023-04-02T08:26:29;98292.41;;;14.38;54.18
60820;BME280;46641;48.904;9.126;2023-04-02T08:31:20;98294.03;;;14.39;54.16
60820;BME280;46641;48.904;9.126;2023-04-02T08:36:15;98297.31;;;14.41;54.25
60820;BME280;46641;48.904;9.126;2023-04-02T08:41:06;98303.03;;;14.45;54.10
60820;BME280;46641;48.904;9.126;2023-04-02T08:46:13;98311.41;;;14.48;53.79
60820;BME280;46641;48.904;9.126;2023-04-02T08:51:06;98318.31;;;14.49;53.87
60820;BME280;46641;48.904;9.126;2023-04-02T08:56:14;98321.63;;;14.52;53.79
60820;BME280;46641;48.904;9.126;2023-04-02T09:01:18;98329.97;;;14.55;53.89
60820;BME280;46641;48.904;9.126;2023-04-02T09:06:12;98334.28;;;14.56;53.85
60820;BME280;46641;48.904;9.126;2023-04-02T09:16:39;98348.81;;;14.67;53.60
60820;BME280;46641;48.904;9.126;2023-04-02T09:21:36;98353.38;;;14.73;53.55
60820;BME280;46641;48.904;9.126;2023-04-02T09:26:32;98354.00;;;14.75;53.42
60820;BME280;46641;48.904;9.126;2023-04-02T09:31:29;98371.59;;;14.83;53.27
60820;BME280;46641;48.904;9.126;2023-04-02T09:36:32;98370.41;;;14.85;53.58
60820;BME280;46641;48.904;9.126;2023-04-02T09:41:26;98378.31;;;14.85;53.35
60820;BME280;46641;48.904;9.126;2023-04-02T09:46:22;98378.78;;;14.89;53.34
60820;BME280;46641;48.904;9.126;2023-04-02T09:51:17;98384.16;;;14.95;53.23
60820;BME280;46641;48.904;9.126;2023-04-02T09:56:19;98394.34;;;14.99;53.29
60820;BME280;46641;48.904;9.126;2023-04-02T10:01:29;98394.97;;;15.01;53.35
60820;BME280;46641;48.904;9.126;2023-04-02T10:06:20;98400.19;;;15.09;53.02
60820;BME280;46641;48.904;9.126;2023-04-02T10:11:20;98411.34;;;15.11;53.26
60820;BME280;46641;48.904;9.126;2023-04-02T10:16:29;98410.47;;;15.18;52.85
60820;BME280;46641;48.904;9.126;2023-04-02T10:21:30;98411.56;;;15.24;53.03
60820;BME280;46641;48.904;9.126;2023-04-02T10:31:30;98420.19;;;15.33;52.77
60820;BME280;46641;48.904;9.126;2023-04-02T10:36:27;98423.50;;;15.35;53.00
60820;BME280;46641;48.904;9.126;2023-04-02T10:41:40;98426.59;;;15.38;52.92
60820;BME280;46641;48.904;9.126;2023-04-02T10:51:34;98441.44;;;15.54;52.57
60820;BME280;46641;48.904;9.126;2023-04-02T10:56:29;98444.78;;;15.63;52.62
60820;BME280;46641;48.904;9.126;2023-04-02T11:01:25;98451.63;;;15.72;52.55
60820;BME280;46641;48.904;9.126;2023-04-02T11:06:21;98453.91;;;15.75;52.39
60820;BME280;46641;48.904;9.126;2023-04-02T11:11:16;98466.59;;;15.80;52.29
60820;BME280;46641;48.904;9.126;2023-04-02T11:16:10;98463.38;;;15.84;52.41
60820;BME280;46641;48.904;9.126;2023-04-02T11:21:37;98469.31;;;15.86;52.20
60820;BME280;46641;48.904;9.126;2023-04-02T11:26:41;98465.31;;;15.91;52.03
60820;BME280;46641;48.904;9.126;2023-04-02T11:31:35;98464.66;;;15.88;52.04
60820;BME280;46641;48.904;9.126;2023-04-02T11:46:48;98487.22;;;15.91;52.19
60820;BME280;46641;48.904;9.126;2023-04-02T11:56:55;98488.59;;;16.02;51.63
60820;BME280;46641;48.904;9.126;2023-04-02T12:01:56;98490.50;;;16.08;52.00
60820;BME280;46641;48.904;9.126;2023-04-02T12:11:44;98502.34;;;16.12;52.37
60820;BME280;46641;48.904;9.126;2023-04-02T12:16:36;98507.25;;;16.15;52.34
60820;BME280;46641;48.904;9.126;2023-04-02T12:21:28;98511.34;;;16.18;52.17
60820;BME280;46641;48.904;9.126;2023-04-02T12:26:35;98519.53;;;16.23;51.75
60820;BME280;46641;48.904;9.126;2023-04-02T12:31:26;98519.19;;;16.26;52.22
60820;BME280;46641;48.904;9.126;2023-04-02T12:36:21;98533.47;;;16.31;52.17
60820;BME280;46641;48.904;9.126;2023-04-02T12:41:29;98535.13;;;16.32;52.22
60820;BME280;46641;48.904;9.126;2023-04-02T12:46:21;98545.31;;;16.35;52.29
60820;BME280;46641;48.904;9.126;2023-04-02T12:51:13;98545.94;;;16.38;52.00
60820;BME280;46641;48.904;9.126;2023-04-02T12:56:04;98564.34;;;16.31;52.33
60820;BME280;46641;48.904;9.126;2023-04-02T13:01:15;98568.72;;;16.24;52.22
60820;BME280;46641;48.904;9.126;2023-04-02T13:06:21;98569.53;;;16.24;52.43
60820;BME280;46641;48.904;9.126;2023-04-02T13:11:13;98574.25;;;16.14;53.11
60820;BME280;46641;48.904;9.126;2023-04-02T13:26:22;98601.38;;;16.08;53.17
60820;BME280;46641;48.904;9.126;2023-04-02T13:31:16;98600.56;;;16.07;53.04
60820;BME280;46641;48.904;9.126;2023-04-02T13:36:12;98601.03;;;16.11;53.19
60820;BME280;46641;48.904;9.126;2023-04-02T13:41:03;98606.31;;;16.11;53.00
60820;BME280;46641;48.904;9.126;2023-04-02T13:45:54;98604.03;;;16.08;53.00
60820;BME280;46641;48.904;9.126;2023-04-02T13:50:47;98615.84;;;15.97;53.02
60820;BME280;46641;48.904;9.126;2023-04-02T13:55:40;98620.69;;;15.94;53.22
60820;BME280;46641;48.904;9.126;2023-04-02T14:00:31;98625.97;;;15.94;53.15
60820;BME280;46641;48.904;9.126;2023-04-02T14:10:56;98640.50;;;15.89;53.02
60820;BME280;46641;48.904;9.126;2023-04-02T14:21:22;98655.94;;;15.78;52.87
60820;BME280;46641;48.904;9.126;2023-04-02T14:26:27;98662.03;;;15.78;52.61
60820;BME280;46641;48.904;9.126;2023-04-02T14:31:40;98666.50;;;15.78;52.51
60820;BME280;46641;48.904;9.126;2023-04-02T14:37:06;98675.41;;;15.77;52.49
60820;BME280;46641;48.904;9.126;2023-04-02T14:42:05;98676.28;;;15.69;52.43
60820;BME280;46641;48.904;9.126;2023-04-02T14:47:08;98687.34;;;15.64;52.55
60820;BME280;46641;48.904;9.126;2023-04-02T14:52:03;98681.88;;;15.66;52.75
60820;BME280;46641;48.904;9.126;2023-04-02T14:57:04;98692.97;;;15.70;52.08
60820;BME280;46641;48.904;9.126;2023-04-02T15:02:00;98694.44;;;15.64;52.40
60820;BME280;46641;48.904;9.126;2023-04-02T15:06:56;98696.78;;;15.59;52.03
60820;BME280;46641;48.904;9.126;2023-04-02T15:12:17;98707.97;;;15.61;52.16
60820;BME280;46641;48.904;9.126;2023-04-02T15:17:10;98708.63;;;15.63;52.68
60820;BME280;46641;48.904;9.126;2023-04-02T15:32:35;98729.19;;;15.45;51.45
60820;BME280;46641;48.904;9.126;2023-04-02T15:37:34;98734.34;;;15.38;51.80
60820;BME280;46641;48.904;9.126;2023-04-02T15:42:38;98738.72;;;15.46;51.86
60820;BME280;46641;48.904;9.126;2023-04-02T15:47:54;98739.13;;;15.34;50.50
60820;BME280;46641;48.904;9.126;2023-04-02T15:53:14;98756.00;;;15.17;50.70
60820;BME280;46641;48.904;9.126;2023-04-02T16:08:25;98775.72;;;15.29;50.67
60820;BME280;46641;48.904;9.126;2023-04-02T16:13:28;98783.38;;;15.08;51.66
60820;BME280;46641;48.904;9.126;2023-04-02T16:23:40;98800.38;;;15.05;51.67
60820;BME280;46641;48.904;9.126;2023-04-02T16:28:53;98803.50;;;15.01;51.17
60820;BME280;46641;48.904;9.126;2023-04-02T16:34:07;98808.09;;;15.07;51.08
60820;BME280;46641;48.904;9.126;2023-04-02T16:39:44;98824.78;;;14.91;49.91
60820;BME280;46641;48.904;9.126;2023-04-02T16:49:49;98843.41;;;14.89;51.17
60820;BME280;46641;48.904;9.126;2023-04-02T17:05:01;98860.19;;;14.80;50.58
60820;BME280;46641;48.904;9.126;2023-04-02T17:10:30;98881.25;;;14.47;49.95
60820;BME280;46641;48.904;9.126;2023-04-02T17:15:33;98895.91;;;14.50;50.42
60820;BME280;46641;48.904;9.126;2023-04-02T17:20:26;98894.44;;;14.56;51.63
60820;BME280;46641;48.904;9.126;2023-04-02T17:25:40;98907.47;;;14.57;50.84
60820;BME280;46641;48.904;9.126;2023-04-02T17:30:43;98914.00;;;14.45;50.97
60820;BME280;46641;48.904;9.126;2023-04-02T17:40:48;98951.56;;;14.55;51.25
60820;BME280;46641;48.904;9.126;2023-04-02T17:45:51;98955.88;;;14.56;50.29
60820;BME280;46641;48.904;9.126;2023-04-02T17:51:01;98964.25;;;14.60;50.42
60820;BME280;46641;48.904;9.126;2023-04-02T18:06:15;98999.56;;;14.41;51.57
60820;BME280;46641;48.904;9.126;2023-04-02T18:21:40;99034.44;;;14.35;51.21
60820;BME280;46641;48.904;9.126;2023-04-02T18:37:37;99074.13;;;14.07;50.23
60820;BME280;46641;48.904;9.126;2023-04-02T18:47:36;99095.72;;;14.11;49.27
60820;BME280;46641;48.904;9.126;2023-04-02T18:52:28;99104.22;;;14.05;50.73
60820;BME280;46641;48.904;9.126;2023-04-02T18:57:23;99125.72;;;14.00;50.06
60820;BME280;46641;48.904;9.126;2023-04-02T19:02:24;99142.13;;;13.94;50.07
60820;BME280;46641;48.904;9.126;2023-04-02T19:07:20;99148.75;;;13.98;50.30
60820;BME280;46641;48.904;9.126;2023-04-02T19:12:18;99165.75;;;13.68;48.20
60820;BME280;46641;48.904;9.126;2023-04-02T19:17:23;99179.28;;;13.55;48.90
60820;BME280;46641;48.904;9.126;2023-04-02T19:32:45;99194.56;;;13.69;49.24
60820;BME280;46641;48.904;9.126;2023-04-02T19:37:50;99206.13;;;13.76;48.77
60820;BME280;46641;48.904;9.126;2023-04-02T19:42:47;99214.72;;;13.78;49.98
60820;BME280;46641;48.904;9.126;2023-04-02T19:47:38;99224.03;;;13.73;48.96
60820;BME280;46641;48.904;9.126;2023-04-02T19:52:28;99230.03;;;13.65;50.19
60820;BME280;46641;48.904;9.126;2023-04-02T19:57:19;99244.16;;;13.64;50.13
60820;BME280;46641;48.904;9.126;2023-04-02T20:02:09;99245.94;;;13.64;49.52
60820;BME280;46641;48.904;9.126;2023-04-02T20:07:00;99248.34;;;13.57;49.40
60820;BME280;46641;48.904;9.126;2023-04-02T20:11:50;99248.66;;;13.54;48.00
60820;BME280;46641;48.904;9.126;2023-04-02T20:16:40;99259.91;;;13.46;50.16
60820;BME280;46641;48.904;9.126;2023-04-02T20:21:31;99269.16;;;13.50;50.18
60820;BME280;46641;48.904;9.126;2023-04-02T20:26:27;99266.69;;;13.49;49.07
60820;BME280;46641;48.904;9.126;2023-04-02T20:31:18;99270.44;;;13.46;49.73
60820;BME280;46641;48.904;9.126;2023-04-02T20:36:11;99282.22;;;13.42;49.56
60820;BME280;46641;48.904;9.126;2023-04-02T20:41:04;99291.88;;;13.42;49.61
60820;BME280;46641;48.904;9.126;2023-04-02T20:45:56;99296.78;;;13.37;49.63
60820;BME280;46641;48.904;9.126;2023-04-02T20:50:47;99296.91;;;13.35;49.35
60820;BME280;46641;48.904;9.126;2023-04-02T20:55:38;99300.00;;;13.30;48.46
60820;BME280;46641;48.904;9.126;2023-04-02T21:00:28;99316.59;;;13.31;49.47
60820;BME280;46641;48.904;9.126;2023-04-02T21:05:18;99317.69;;;13.28;48.71
60820;BME280;46641;48.904;9.126;2023-04-02T21:10:09;99326.72;;;13.26;49.28
60820;BME280;46641;48.904;9.126;2023-04-02T21:14:59;99337.53;;;13.13;49.27
60820;BME280;46641;48.904;9.126;2023-04-02T21:19:50;99345.25;;;13.15;48.73
60820;BME280;46641;48.904;9.126;2023-04-02T21:24:40;99338.34;;;13.14;49.46
60820;BME280;46641;48.904;9.126;2023-04-02T21:29:30;99337.53;;;13.13;49.83
60820;BME280;46641;48.904;9.126;2023-04-02T21:34:21;99331.69;;;13.09;49.20
60820;BME280;46641;48.904;9.126;2023-04-02T21:39:21;99336.41;;;13.06;48.46
60820;BME280;46641;48.904;9.126;2023-04-02T21:44:13;99339.91;;;13.06;49.41
60820;BME280;46641;48.904;9.126;2023-04-02T21:49:05;99347.91;;;13.05;48.96
60820;BME280;46641;48.904;9.126;2023-04-02T21:53:57;99358.69;;;13.02;49.75
60820;BME280;46641;48.904;9.126;2023-04-02T21:58:49;99363.84;;;13.03;49.60
60820;BME280;46641;48.904;9.126;2023-04-02T22:03:40;99362.16;;;13.02;49.92
60820;BME280;46641;48.904;9.126;2023-04-02T22:08:31;99361.59;;;12.99;49.71
60820;BME280;46641;48.904;9.126;2023-04-02T22:13:22;99361.75;;;12.97;49.51
60820;BME280;46641;48.904;9.126;2023-04-02T22:18:12;99370.59;;;12.96;49.53
60820;BME280;46641;48.904;9.126;2023-04-02T22:23:02;99370.59;;;12.96;50.25
60820;BME280;46641;48.904;9.126;2023-04-02T22:27:52;99376.84;;;12.95;49.89
60820;BME280;46641;48.904;9.126;2023-04-02T22:32:43;99374.50;;;12.92;49.68
60820;BME280;46641;48.904;9.126;2023-04-02T22:37:33;99373.78;;;12.90;50.05
60820;BME280;46641;48.904;9.126;2023-04-02T22:42:23;99374.75;;;12.89;50.18
60820;BME280;46641;48.904;9.126;2023-04-02T22:47:15;99372.41;;;12.86;50.56
60820;BME280;46641;48.904;9.126;2023-04-02T22:52:06;99378.78;;;12.83;50.41
60820;BME280;46641;48.904;9.126;2023-04-02T22:56:58;99375.59;;;12.80;50.52
60820;BME280;46641;48.904;9.126;2023-04-02T23:01:48;99376.59;;;12.79;50.74
60820;BME280;46641;48.904;9.126;2023-04-02T23:06:38;99370.63;;;12.77;50.61
60820;BME280;46641;48.904;9.126;2023-04-02T23:11:28;99361.94;;;12.76;50.82
60820;BME280;46641;48.904;9.126;2023-04-02T23:16:19;99374.94;;;12.78;50.69
60820;BME280;46641;48.904;9.126;2023-04-02T23:21:10;99366.34;;;12.76;50.87
60820;BME280;46641;48.904;9.126;2023-04-02T23:26:09;99371.75;;;12.74;50.51
60820;BME280;46641;48.904;9.126;2023-04-02T23:31:01;99371.88;;;12.73;51.18
60820;BME280;46641;48.904;9.126;2023-04-02T23:35:52;99371.88;;;12.73;51.35
60820;BME280;46641;48.904;9.126;2023-04-02T23:40:42;99379.09;;;12.71;51.23
60820;BME280;46641;48.904;9.126;2023-04-02T23:45:32;99381.03;;;12.69;51.30
60820;BME280;46641;48.904;9.126;2023-04-02T23:50:23;99369.81;;;12.67;51.82
60820;BME280;46641;48.904;9.126;2023-04-02T23:55:13;99367.19;;;12.67;52.01
